createdAt,value
2022-12-23T00:01:34.317Z,8.60
2022-12-23T00:04:35.492Z,8.70
2022-12-23T00:07:36.715Z,8.70
2022-12-23T00:10:41.706Z,8.80
2022-12-23T00:14:20.116Z,8.90
2022-12-23T00:17:23.129Z,9.00
2022-12-23T00:20:24.267Z,8.90
2022-12-23T00:23:24.858Z,8.90
2022-12-23T00:26:28.182Z,8.90
2022-12-23T00:29:29.830Z,8.90
2022-12-23T00:32:30.913Z,8.90
2022-12-23T00:35:32.378Z,8.90
2022-12-23T00:38:51.448Z,9.00
2022-12-23T00:42:11.088Z,9.00
2022-12-23T00:45:17.626Z,8.90
2022-12-23T00:48:39.288Z,8.90
2022-12-23T00:51:40.545Z,8.90
2022-12-23T00:54:42.095Z,9.00
2022-12-23T00:57:43.396Z,9.10
2022-12-23T01:01:04.066Z,9.00
2022-12-23T01:04:23.876Z,9.00
2022-12-23T01:07:25.079Z,9.00
2022-12-23T01:10:25.938Z,9.00
2022-12-23T01:13:26.538Z,9.00
2022-12-23T01:16:27.723Z,9.00
2022-12-23T01:19:29.150Z,9.00
2022-12-23T01:22:30.126Z,9.10
2022-12-23T01:25:32.414Z,9.20
2022-12-23T01:28:35.587Z,9.30
2022-12-23T01:31:36.745Z,9.30
2022-12-23T01:34:37.869Z,9.30
2022-12-23T01:37:38.573Z,9.40
2022-12-23T01:40:45.300Z,9.50
2022-12-23T01:43:50.625Z,9.50
2022-12-23T01:46:53.039Z,9.50
2022-12-23T01:50:04.104Z,9.60
2022-12-23T01:53:26.193Z,9.60
2022-12-23T01:56:38.219Z,9.80
2022-12-23T02:00:00.869Z,9.80
2022-12-23T02:03:20.395Z,9.90
2022-12-23T02:06:54.867Z,10.00
2022-12-23T02:09:56.576Z,10.10
2022-12-23T02:14:00.031Z,10.10
2022-12-23T02:17:47.285Z,10.10
2022-12-23T02:21:20.135Z,10.10
2022-12-23T02:24:48.790Z,9.90
2022-12-23T02:28:19.822Z,10.00
2022-12-23T02:31:51.119Z,10.10
2022-12-23T02:35:13.660Z,10.10
2022-12-23T02:38:31.425Z,10.30
2022-12-23T02:41:56.725Z,10.30
2022-12-23T02:45:33.792Z,10.30
2022-12-23T02:49:18.766Z,10.40
2022-12-23T02:52:27.357Z,10.20
2022-12-23T02:55:36.876Z,10.30
2022-12-23T02:59:01.063Z,10.20
2022-12-23T03:02:02.283Z,10.20
2022-12-23T03:05:04.555Z,10.20
2022-12-23T03:08:13.998Z,10.30
2022-12-23T03:11:17.508Z,10.30
2022-12-23T03:15:00.851Z,10.30
2022-12-23T03:18:39.915Z,10.30
2022-12-23T03:21:59.839Z,10.40
2022-12-23T03:25:21.739Z,10.40
2022-12-23T03:28:34.626Z,10.20
2022-12-23T03:31:37.957Z,10.10
2022-12-23T03:34:45.448Z,10.10
2022-12-23T03:37:53.434Z,10.10
2022-12-23T03:41:00.868Z,10.20
2022-12-23T03:44:10.882Z,10.30
2022-12-23T03:47:23.135Z,10.30
2022-12-23T03:50:25.540Z,10.30
2022-12-23T03:53:38.937Z,10.30
2022-12-23T03:56:47.935Z,10.30
2022-12-23T03:59:51.649Z,10.20
2022-12-23T04:03:20.164Z,10.30
2022-12-23T04:06:24.605Z,10.40
2022-12-23T04:09:28.897Z,10.40
2022-12-23T04:12:31.704Z,10.40
2022-12-23T04:15:33.460Z,10.30
2022-12-23T04:18:34.728Z,10.20
2022-12-23T04:21:35.977Z,10.20
2022-12-23T04:24:37.298Z,10.20
2022-12-23T04:27:38.135Z,10.10
2022-12-23T04:30:39.043Z,10.10
2022-12-23T04:33:39.905Z,10.10
2022-12-23T04:36:40.707Z,10.10
2022-12-23T04:39:41.478Z,10.00
2022-12-23T04:42:42.281Z,10.10
2022-12-23T04:45:43.183Z,10.10
2022-12-23T04:48:43.896Z,10.30
2022-12-23T04:51:45.131Z,10.30
2022-12-23T04:54:46.618Z,10.20
2022-12-23T04:57:47.645Z,10.20
2022-12-23T05:00:48.800Z,10.10
2022-12-23T05:03:49.741Z,10.10
2022-12-23T05:06:50.556Z,10.10
2022-12-23T05:09:51.403Z,10.10
2022-12-23T05:12:52.284Z,10.10
2022-12-23T05:15:55.412Z,10.20
2022-12-23T05:18:56.229Z,10.10
2022-12-23T05:21:56.988Z,10.20
2022-12-23T05:24:57.588Z,10.20
2022-12-23T05:27:58.672Z,10.20
2022-12-23T05:31:06.992Z,10.20
2022-12-23T05:34:08.339Z,10.20
2022-12-23T05:37:09.224Z,10.20
2022-12-23T05:40:10.510Z,10.20
2022-12-23T05:43:11.704Z,10.30
2022-12-23T05:46:12.695Z,10.30
2022-12-23T05:49:13.990Z,10.40
2022-12-23T05:52:14.751Z,10.50
2022-12-23T05:55:15.674Z,10.40
2022-12-23T05:58:17.306Z,10.50
2022-12-23T06:01:18.285Z,10.50
2022-12-23T06:04:19.162Z,10.60
2022-12-23T06:07:20.388Z,10.60
2022-12-23T06:10:21.695Z,10.60
2022-12-23T06:13:22.337Z,10.60
2022-12-23T06:16:23.514Z,10.50
2022-12-23T06:19:24.879Z,10.50
2022-12-23T06:22:25.693Z,10.50
2022-12-23T06:25:26.339Z,10.60
2022-12-23T06:28:27.609Z,10.50
2022-12-23T06:31:28.810Z,10.50
2022-12-23T06:34:30.706Z,10.50
2022-12-23T06:37:31.897Z,10.50
2022-12-23T06:40:33.017Z,10.50
2022-12-23T06:43:33.557Z,10.60
2022-12-23T06:46:34.519Z,10.60
2022-12-23T06:49:35.454Z,10.60
2022-12-23T06:52:36.320Z,10.60
2022-12-23T06:55:37.184Z,10.60
2022-12-23T06:58:38.534Z,10.60
2022-12-23T07:01:40.772Z,10.60
2022-12-23T07:04:41.910Z,10.60
2022-12-23T07:07:42.800Z,10.50
2022-12-23T07:10:43.485Z,10.60
2022-12-23T07:13:47.201Z,10.60
2022-12-23T07:16:48.528Z,10.60
2022-12-23T07:19:49.381Z,10.70
2022-12-23T07:22:50.513Z,10.80
2022-12-23T07:25:51.656Z,10.80
2022-12-23T07:28:52.368Z,10.80
2022-12-23T07:31:53.701Z,10.90
2022-12-23T07:34:54.721Z,10.80
2022-12-23T07:37:56.457Z,10.90
2022-12-23T07:40:57.570Z,10.90
2022-12-23T07:43:58.214Z,11.00
2022-12-23T07:46:58.989Z,11.00
2022-12-23T07:49:59.593Z,11.00
2022-12-23T07:53:00.897Z,11.00
2022-12-23T07:56:01.774Z,11.00
2022-12-23T07:59:02.897Z,11.00
2022-12-23T08:02:04.206Z,10.90
2022-12-23T08:05:06.497Z,10.90
2022-12-23T08:08:07.619Z,10.90
2022-12-23T08:11:11.539Z,10.90
2022-12-23T08:14:12.533Z,10.90
2022-12-23T08:17:13.097Z,10.90
2022-12-23T08:20:13.783Z,10.90
2022-12-23T08:23:19.965Z,10.90
2022-12-23T08:26:25.139Z,10.80
2022-12-23T08:29:28.876Z,10.80
2022-12-23T08:32:32.411Z,10.80
2022-12-23T08:35:33.291Z,10.70
2022-12-23T08:38:36.353Z,10.60
2022-12-23T08:41:44.708Z,10.60
2022-12-23T08:44:45.725Z,10.60
2022-12-23T08:47:46.401Z,10.60
2022-12-23T08:50:47.930Z,10.60
2022-12-23T08:53:53.530Z,10.50
2022-12-23T08:56:57.422Z,10.50
2022-12-23T08:59:58.288Z,10.40
2022-12-23T09:02:59.310Z,10.50
2022-12-23T09:06:09.907Z,10.50
2022-12-23T09:09:14.506Z,10.40
2022-12-23T09:12:15.600Z,10.40
2022-12-23T09:15:17.051Z,10.50
2022-12-23T09:18:17.925Z,10.60
2022-12-23T09:21:23.049Z,10.60
2022-12-23T09:24:24.750Z,10.60
2022-12-23T09:27:25.891Z,10.60
2022-12-23T09:30:26.922Z,10.70
2022-12-23T09:33:28.111Z,10.60
2022-12-23T09:36:30.055Z,10.70
2022-12-23T09:39:31.216Z,10.70
2022-12-23T09:42:38.013Z,10.90
2022-12-23T09:46:14.225Z,10.90
2022-12-23T09:49:18.748Z,10.90
2022-12-23T09:52:30.352Z,11.00
2022-12-23T09:56:02.315Z,11.10
2022-12-23T09:59:31.136Z,11.20
2022-12-23T10:03:29.507Z,11.30
2022-12-23T10:06:32.986Z,11.50
2022-12-23T10:09:41.265Z,11.50
2022-12-23T10:12:50.063Z,11.60
2022-12-23T10:15:52.668Z,11.70
2022-12-23T10:19:12.934Z,11.70
2022-12-23T10:22:32.997Z,11.60
2022-12-23T10:25:46.521Z,11.60
2022-12-23T10:28:47.898Z,11.60
2022-12-23T10:32:07.288Z,11.60
2022-12-23T10:35:45.969Z,11.70
2022-12-23T10:39:02.903Z,11.70
2022-12-23T10:42:26.464Z,11.80
2022-12-23T10:45:59.374Z,11.90
2022-12-23T10:49:16.003Z,11.90
2022-12-23T10:52:30.023Z,12.00
2022-12-23T10:55:38.582Z,12.00
2022-12-23T10:58:45.512Z,11.90
2022-12-23T11:01:53.270Z,11.80
2022-12-23T11:04:54.373Z,11.80
2022-12-23T11:07:56.077Z,11.70
2022-12-23T11:10:59.042Z,11.70
2022-12-23T11:14:00.232Z,11.50
2022-12-23T11:17:01.582Z,11.40
2022-12-23T11:20:17.532Z,11.30
2022-12-23T11:23:29.428Z,11.30
2022-12-23T11:26:30.856Z,11.30
2022-12-23T11:29:37.386Z,11.30
2022-12-23T11:32:38.403Z,11.30
2022-12-23T11:35:39.949Z,11.30
2022-12-23T11:39:03.118Z,11.30
2022-12-23T11:42:20.031Z,11.20
2022-12-23T11:45:29.759Z,11.20
2022-12-23T11:48:31.195Z,11.20
2022-12-23T11:51:32.121Z,11.20
2022-12-23T11:54:34.619Z,11.20
2022-12-23T11:57:44.662Z,11.10
2022-12-23T12:00:57.609Z,11.10
2022-12-23T12:04:04.460Z,11.10
2022-12-23T12:07:07.553Z,11.10
2022-12-23T12:10:22.364Z,11.10
2022-12-23T12:13:36.522Z,11.10
2022-12-23T12:17:02.839Z,11.10
2022-12-23T12:20:33.818Z,11.10
2022-12-23T12:24:14.760Z,11.10
2022-12-23T12:27:16.714Z,11.20
2022-12-23T12:30:21.490Z,11.20
2022-12-23T12:33:49.244Z,11.20
2022-12-23T12:37:18.401Z,11.30
2022-12-23T12:40:40.412Z,11.40
2022-12-23T12:44:03.717Z,11.40
2022-12-23T12:47:44.642Z,11.60
2022-12-23T12:50:49.294Z,11.70
2022-12-23T12:54:05.120Z,11.80
2022-12-23T12:57:15.456Z,11.70
2022-12-23T13:00:22.915Z,11.70
2022-12-23T13:04:03.912Z,11.70
2022-12-23T13:07:39.481Z,11.80
2022-12-23T13:11:14.158Z,11.80
2022-12-23T13:14:43.001Z,11.80
2022-12-23T13:18:01.944Z,11.70
2022-12-23T13:21:45.082Z,11.50
2022-12-23T13:25:20.635Z,11.50
2022-12-23T13:28:40.077Z,11.50
2022-12-23T13:32:00.938Z,11.40
2022-12-23T13:35:25.327Z,11.40
2022-12-23T13:38:37.938Z,11.50
2022-12-23T13:41:51.963Z,11.50
2022-12-23T13:44:55.885Z,11.50
2022-12-23T13:48:43.186Z,11.40
2022-12-23T13:51:56.453Z,11.40
2022-12-23T13:55:38.472Z,11.30
2022-12-23T13:58:40.826Z,11.30
2022-12-23T14:01:42.393Z,11.40
2022-12-23T14:05:00.364Z,11.40
2022-12-23T14:08:42.200Z,11.40
2022-12-23T14:11:45.346Z,11.30
2022-12-23T14:15:03.772Z,11.20
2022-12-23T14:18:55.694Z,11.10
2022-12-23T14:22:37.027Z,11.10
2022-12-23T14:26:04.348Z,11.10
2022-12-23T14:29:33.196Z,11.10
2022-12-23T14:32:52.994Z,11.10
2022-12-23T14:35:57.114Z,11.10
2022-12-23T14:39:13.664Z,11.00
2022-12-23T14:42:39.918Z,11.10
2022-12-23T14:45:45.016Z,11.00
2022-12-23T14:48:46.180Z,10.90
2022-12-23T14:51:50.995Z,11.00
2022-12-23T14:55:20.978Z,10.90
2022-12-23T14:58:32.864Z,10.90
2022-12-23T15:01:51.666Z,10.90
2022-12-23T15:04:59.140Z,10.90
2022-12-23T15:08:00.297Z,10.90
2022-12-23T15:11:01.434Z,11.00
2022-12-23T15:14:17.023Z,11.00
2022-12-23T15:17:35.051Z,10.90
2022-12-23T15:20:36.140Z,11.00
2022-12-23T15:23:37.013Z,10.90
2022-12-23T15:26:39.233Z,10.90
2022-12-23T15:29:53.624Z,10.90
2022-12-23T15:33:02.844Z,11.00
2022-12-23T15:36:06.605Z,10.90
2022-12-23T15:39:17.337Z,11.00
2022-12-23T15:42:24.238Z,11.00
2022-12-23T15:45:41.243Z,11.10
2022-12-23T15:48:43.268Z,11.00
2022-12-23T15:52:07.862Z,11.10
2022-12-23T15:55:20.019Z,11.10
2022-12-23T15:58:24.906Z,11.10
2022-12-23T16:01:26.816Z,11.20
2022-12-23T16:04:29.463Z,11.30
2022-12-23T16:07:40.628Z,11.40
2022-12-23T16:10:55.627Z,11.40
2022-12-23T16:14:16.984Z,11.50
2022-12-23T16:17:30.557Z,11.50
2022-12-23T16:20:45.139Z,11.40
2022-12-23T16:23:53.168Z,11.60
2022-12-23T16:26:56.425Z,11.60
2022-12-23T16:30:02.119Z,11.70
2022-12-23T16:33:37.089Z,11.70
2022-12-23T16:36:38.291Z,11.70
2022-12-23T16:39:41.331Z,11.80
2022-12-23T16:42:42.728Z,11.60
2022-12-23T16:45:47.447Z,11.50
2022-12-23T16:49:00.739Z,11.40
2022-12-23T16:52:05.577Z,11.40
2022-12-23T16:55:17.197Z,11.20
2022-12-23T16:58:18.079Z,11.10
2022-12-23T17:01:36.262Z,11.10
2022-12-23T17:04:38.179Z,11.10
2022-12-23T17:07:45.077Z,10.90
2022-12-23T17:10:46.769Z,11.00
2022-12-23T17:13:47.847Z,11.00
2022-12-23T17:16:50.591Z,11.00
2022-12-23T17:19:52.627Z,11.00
2022-12-23T17:22:59.631Z,11.00
2022-12-23T17:26:00.412Z,11.00
2022-12-23T17:29:04.344Z,11.00
2022-12-23T17:32:05.852Z,11.00
2022-12-23T17:35:07.143Z,11.00
2022-12-23T17:38:15.215Z,11.00
2022-12-23T17:41:28.781Z,11.00
2022-12-23T17:44:29.838Z,10.90
2022-12-23T17:47:30.813Z,10.90
2022-12-23T17:50:35.342Z,10.80
2022-12-23T17:53:36.203Z,10.70
2022-12-23T17:56:37.099Z,10.70
2022-12-23T17:59:38.413Z,10.60
2022-12-23T18:02:40.793Z,10.60
2022-12-23T18:05:41.701Z,10.60
2022-12-23T18:08:42.929Z,10.60
2022-12-23T18:11:46.748Z,10.60
2022-12-23T18:14:48.034Z,10.60
2022-12-23T18:17:51.226Z,10.60
2022-12-23T18:20:55.984Z,10.70
2022-12-23T18:24:00.029Z,10.70
2022-12-23T18:27:01.121Z,10.70
2022-12-23T18:30:02.062Z,10.70
2022-12-23T18:33:02.845Z,10.90
2022-12-23T18:36:04.444Z,10.90
2022-12-23T18:39:05.366Z,11.00
2022-12-23T18:42:06.328Z,11.00
2022-12-23T18:45:39.842Z,11.00
2022-12-23T18:48:41.272Z,11.10
2022-12-23T18:51:42.450Z,11.20
2022-12-23T18:54:43.588Z,11.30
2022-12-23T18:57:45.073Z,11.50
2022-12-23T19:00:47.857Z,11.40
2022-12-23T19:03:49.021Z,11.50
2022-12-23T19:06:49.884Z,11.60
2022-12-23T19:09:50.704Z,11.80
2022-12-23T19:12:52.891Z,11.90
2022-12-23T19:15:53.906Z,12.00
2022-12-23T19:18:55.464Z,12.20
2022-12-23T19:21:56.207Z,12.30
2022-12-23T19:25:05.361Z,12.30
2022-12-23T19:28:07.554Z,12.50
2022-12-23T19:31:11.962Z,12.50
2022-12-23T19:34:15.342Z,12.60
2022-12-23T19:37:16.840Z,12.60
2022-12-23T19:40:18.408Z,12.70
2022-12-23T19:43:19.299Z,12.50
2022-12-23T19:46:20.245Z,12.40
2022-12-23T19:49:21.187Z,12.40
2022-12-23T19:52:22.035Z,12.30
2022-12-23T19:55:23.378Z,12.20
2022-12-23T19:58:24.522Z,12.30
2022-12-23T20:01:27.135Z,12.40
2022-12-23T20:04:28.282Z,12.40
2022-12-23T20:07:29.338Z,12.30
2022-12-23T20:10:30.069Z,12.20
2022-12-23T20:13:31.828Z,12.30
2022-12-23T20:16:33.515Z,12.30
2022-12-23T20:19:37.880Z,12.30
2022-12-23T20:22:41.586Z,12.30
2022-12-23T20:25:42.384Z,12.30
2022-12-23T20:28:43.895Z,12.20
2022-12-23T20:31:44.767Z,12.20
2022-12-23T20:34:45.895Z,12.20
2022-12-23T20:37:46.963Z,12.10
2022-12-23T20:40:48.172Z,12.20
2022-12-23T20:44:23.510Z,12.10
2022-12-23T20:47:10.881Z,11.90
2022-12-23T20:50:11.612Z,11.90
2022-12-23T20:53:12.598Z,12.00
2022-12-23T20:56:16.522Z,11.90
2022-12-23T20:59:17.247Z,11.80
2022-12-23T21:02:18.369Z,11.90
2022-12-23T21:05:19.537Z,11.90
2022-12-23T21:08:20.143Z,11.80
2022-12-23T21:11:21.752Z,11.80
2022-12-23T21:14:22.551Z,11.90
2022-12-23T21:17:23.962Z,11.90
2022-12-23T21:20:25.579Z,11.90
2022-12-23T21:23:27.634Z,11.90
2022-12-23T21:26:31.580Z,11.90
2022-12-23T21:29:32.870Z,11.90
2022-12-23T21:32:33.954Z,11.90
2022-12-23T21:35:35.721Z,11.90
2022-12-23T21:38:40.004Z,12.00
2022-12-23T21:41:41.966Z,12.00
2022-12-23T21:44:43.085Z,12.00
2022-12-23T21:47:43.984Z,12.00
2022-12-23T21:50:45.033Z,12.00
2022-12-23T21:53:48.975Z,12.10
2022-12-23T21:56:49.842Z,12.10
2022-12-23T21:59:50.724Z,12.10
2022-12-23T22:02:51.637Z,12.00
2022-12-23T22:05:53.221Z,12.10
2022-12-23T22:08:56.270Z,12.00
2022-12-23T22:11:57.024Z,12.10
2022-12-23T22:14:58.350Z,12.20
2022-12-23T22:17:59.358Z,12.10
2022-12-23T22:21:08.287Z,12.00
2022-12-23T22:24:09.803Z,11.80
2022-12-23T22:27:10.669Z,11.90
2022-12-23T22:30:11.709Z,12.00
2022-12-23T22:33:12.910Z,12.00
2022-12-23T22:36:15.926Z,12.10
2022-12-23T22:39:21.008Z,12.10
2022-12-23T22:42:22.784Z,12.00
2022-12-23T22:45:23.732Z,11.90
2022-12-23T22:48:26.357Z,11.80
2022-12-23T22:51:30.644Z,11.80
2022-12-23T22:54:31.822Z,11.90
2022-12-23T22:57:34.234Z,11.90
2022-12-23T23:00:34.966Z,11.90
2022-12-23T23:03:36.301Z,11.80
2022-12-23T23:06:38.785Z,11.80
2022-12-23T23:09:39.954Z,11.70
2022-12-23T23:12:41.642Z,11.70
2022-12-23T23:15:47.274Z,11.90
2022-12-23T23:18:49.338Z,11.90
2022-12-23T23:21:50.404Z,11.90
2022-12-23T23:24:52.225Z,11.80
2022-12-23T23:27:53.035Z,11.70
2022-12-23T23:31:16.841Z,11.60
2022-12-23T23:34:15.550Z,11.80
2022-12-23T23:37:16.690Z,11.80
2022-12-23T23:40:17.697Z,11.80
2022-12-23T23:43:18.978Z,11.70
2022-12-23T23:46:20.391Z,11.70
2022-12-23T23:49:22.716Z,11.60
2022-12-23T23:52:23.681Z,11.60
2022-12-23T23:55:24.785Z,11.70
2022-12-23T23:58:25.527Z,11.50
